Time;durP1;ratioP1;P1;durP2;ratioP2;P2;SDS_P1;SDS_P2;PMS_P1;PMS_P2;Temp;Humidity;BMP_temperature;BMP_pressure;BME280_temperature;BME280_humidity;BME280_pressure;Samples;Min_cycle;Max_cycle;Signal;HPM_P1;HPM_P2
2022/09/23 00:02:15;;;;;;;21.48;14.52;;;9.10;99.90;;;;;;4767931;30;20137;-87
2022/09/23 00:04:41;;;;;;;17.88;14.48;;;9.00;99.90;;;;;;4767578;30;20067;-86
2022/09/23 00:07:07;;;;;;;21.15;15.65;;;9.00;99.90;;;;;;4768539;30;20115;-87
2022/09/23 00:09:33;;;;;;;19.38;14.90;;;9.00;99.90;;;;;;4767080;30;20104;-87
2022/09/23 00:11:59;;;;;;;16.90;15.13;;;9.00;99.90;;;;;;4786371;29;20619;-86
2022/09/23 00:14:25;;;;;;;21.60;15.77;;;9.00;99.90;;;;;;4785276;29;20126;-86
2022/09/23 00:16:51;;;;;;;18.70;15.75;;;8.90;99.90;;;;;;4785500;29;20137;-87
2022/09/23 00:19:17;;;;;;;19.17;16.25;;;8.90;99.90;;;;;;4793704;29;20455;-86
2022/09/23 00:21:43;;;;;;;19.92;15.90;;;8.90;99.90;;;;;;4766160;29;20035;-87
2022/09/23 00:24:08;;;;;;;19.33;14.98;;;8.90;99.90;;;;;;4770624;29;20065;-86
2022/09/23 00:26:34;;;;;;;19.58;15.50;;;8.90;99.90;;;;;;4771145;29;20119;-87
2022/09/23 00:29:00;;;;;;;19.00;14.55;;;8.90;99.90;;;;;;4770742;29;20094;-86
2022/09/23 00:31:26;;;;;;;20.98;16.35;;;8.90;99.90;;;;;;4770338;29;20123;-86
2022/09/23 00:33:53;;;;;;;19.42;15.95;;;8.90;99.90;;;;;;4785197;29;20144;-86
2022/09/23 00:36:19;;;;;;;23.98;15.52;;;8.90;99.90;;;;;;4784831;29;20103;-87
2022/09/23 00:38:45;;;;;;;19.13;14.80;;;8.80;99.90;;;;;;4769751;29;20055;-86
2022/09/23 00:41:14;;;;;;;19.40;14.95;;;8.80;99.90;;;;;;4770057;29;20050;-86
2022/09/23 00:43:44;;;;;;;17.50;15.48;;;8.80;99.90;;;;;;4770236;29;20059;-86
2022/09/23 00:46:21;;;;;;;19.42;14.80;;;8.70;99.90;;;;;;4770067;29;20058;-86
2022/09/23 00:48:53;;;;;;;17.38;14.65;;;8.70;99.90;;;;;;4770010;29;20094;-87
2022/09/23 00:51:23;;;;;;;20.60;15.15;;;8.70;99.90;;;;;;4768784;29;20050;-87
2022/09/23 00:53:51;;;;;;;20.67;15.27;;;8.60;99.90;;;;;;4770053;29;20072;-86
2022/09/23 00:56:18;;;;;;;22.67;15.10;;;8.60;99.90;;;;;;4770068;29;20042;-86
2022/09/23 00:58:45;;;;;;;22.60;16.58;;;8.60;99.90;;;;;;4769173;29;20103;-86
2022/09/23 01:01:13;;;;;;;22.70;15.27;;;8.60;99.90;;;;;;4770299;29;20046;-87
2022/09/23 01:03:41;;;;;;;18.85;15.88;;;8.60;99.90;;;;;;4769483;29;20504;-86
2022/09/23 01:06:08;;;;;;;17.50;14.00;;;8.60;99.90;;;;;;4783788;29;20939;-87
2022/09/23 01:08:33;;;;;;;23.13;16.58;;;8.60;99.90;;;;;;4770135;29;20043;-86
2022/09/23 01:11:22;;;;;;;17.80;14.98;;;8.60;99.90;;;;;;4766599;30;20556;-86
2022/09/23 01:13:59;;;;;;;21.13;16.52;;;8.60;99.90;;;;;;4766514;30;20047;-86
2022/09/23 01:16:43;;;;;;;18.98;16.23;;;8.60;99.90;;;;;;4767141;30;20051;-86
2022/09/23 01:19:40;;;;;;;19.85;16.40;;;8.60;99.90;;;;;;4766216;30;20055;-86
2022/09/23 01:22:17;;;;;;;22.65;18.02;;;8.60;99.90;;;;;;4765920;30;20515;-87
2022/09/23 01:24:58;;;;;;;21.33;15.75;;;8.60;99.90;;;;;;4766032;30;20503;-86
2022/09/23 01:27:40;;;;;;;20.30;18.10;;;8.60;99.90;;;;;;4766084;30;20051;-86
2022/09/23 01:30:07;;;;;;;22.48;17.10;;;8.60;99.90;;;;;;4766286;30;20587;-86
2022/09/23 01:32:50;;;;;;;22.30;16.38;;;8.60;99.90;;;;;;4766875;30;20055;-86
2022/09/23 01:35:41;;;;;;;22.77;17.60;;;8.50;99.90;;;;;;4765304;30;20143;-86
2022/09/23 01:38:18;;;;;;;23.73;17.90;;;8.50;99.90;;;;;;4766405;30;22363;-86
2022/09/23 01:40:58;;;;;;;19.15;16.35;;;8.50;99.90;;;;;;4765553;30;20198;-86
2022/09/23 01:43:48;;;;;;;21.73;16.55;;;8.50;99.90;;;;;;4766587;30;20584;-87
2022/09/23 01:46:20;;;;;;;22.77;17.23;;;8.50;99.90;;;;;;4766449;30;20120;-86
2022/09/23 01:48:55;;;;;;;20.85;16.77;;;8.50;99.90;;;;;;4765722;30;20546;-85
2022/09/23 01:51:42;;;;;;;17.83;15.93;;;8.50;99.90;;;;;;4765597;30;20054;-86
2022/09/23 01:54:19;;;;;;;20.98;16.58;;;8.50;99.90;;;;;;4765562;30;20101;-86
2022/09/23 01:56:51;;;;;;;22.83;16.33;;;8.50;99.90;;;;;;4766033;30;20062;-86
2022/09/23 01:59:32;;;;;;;17.33;15.47;;;8.50;99.90;;;;;;4768379;29;20599;-86
2022/09/23 02:02:07;;;;;;;19.67;17.55;;;8.50;99.90;;;;;;4783118;29;20051;-86
2022/09/23 02:04:39;;;;;;;20.80;15.82;;;8.50;99.90;;;;;;4784380;29;20519;-86
2022/09/23 02:07:19;;;;;;;23.15;18.75;;;8.50;99.90;;;;;;4783771;29;20236;-87
2022/09/23 02:09:52;;;;;;;20.98;18.08;;;8.50;99.90;;;;;;4782962;29;20411;-86
2022/09/23 02:12:23;;;;;;;20.85;16.48;;;8.50;99.90;;;;;;4784364;29;20058;-86
2022/09/23 02:14:57;;;;;;;21.13;17.90;;;8.50;99.90;;;;;;4783580;29;20100;-86
2022/09/23 02:17:32;;;;;;;19.83;15.88;;;8.50;99.90;;;;;;4783621;29;20121;-86
2022/09/23 02:20:03;;;;;;;20.42;16.83;;;8.50;99.90;;;;;;4783161;29;20050;-86
2022/09/23 02:22:39;;;;;;;21.08;17.02;;;8.50;99.90;;;;;;4783363;29;20065;-86
2022/09/23 02:25:07;;;;;;;20.65;16.85;;;8.50;99.90;;;;;;4783756;29;20399;-86
2022/09/23 02:27:43;;;;;;;20.83;16.08;;;8.50;99.90;;;;;;4784474;29;20133;-86
2022/09/23 02:30:21;;;;;;;23.15;16.30;;;8.50;99.90;;;;;;4782923;29;20051;-86
2022/09/23 02:32:55;;;;;;;19.75;16.42;;;8.50;99.90;;;;;;4783610;29;20133;-85
2022/09/23 02:35:34;;;;;;;18.60;16.30;;;8.40;99.90;;;;;;4783143;29;20047;-86
2022/09/23 02:38:16;;;;;;;18.17;16.10;;;8.40;99.90;;;;;;4785392;29;20047;-86
2022/09/23 02:40:56;;;;;;;18.83;16.13;;;8.40;99.90;;;;;;4787104;29;20432;-87
2022/09/23 02:43:31;;;;;;;24.15;17.88;;;8.30;99.90;;;;;;4786731;29;20129;-86
2022/09/23 02:45:57;;;;;;;21.48;17.83;;;8.30;99.90;;;;;;4787290;29;20043;-85
2022/09/23 02:48:29;;;;;;;19.48;17.13;;;8.20;99.90;;;;;;4787275;29;20489;-86
2022/09/23 02:50:54;;;;;;;19.85;15.32;;;8.10;99.90;;;;;;4785565;29;20192;-86
2022/09/23 02:53:23;;;;;;;22.55;17.10;;;8.10;99.90;;;;;;4787438;29;20141;-85
2022/09/23 02:55:49;;;;;;;21.88;16.55;;;8.10;99.90;;;;;;4786582;29;20049;-86
2022/09/23 02:58:16;;;;;;;19.38;17.08;;;8.00;99.90;;;;;;4786489;29;20696;-86
2022/09/23 03:01:06;;;;;;;19.00;17.00;;;8.00;99.90;;;;;;4786435;29;20055;-86
2022/09/23 03:03:37;;;;;;;21.67;18.38;;;7.90;99.90;;;;;;4787332;29;20089;-86
2022/09/23 03:06:14;;;;;;;19.90;17.60;;;7.90;99.90;;;;;;4785209;29;20521;-86
2022/09/23 03:08:47;;;;;;;24.17;17.42;;;7.90;99.90;;;;;;4786884;29;20501;-85
2022/09/23 03:11:14;;;;;;;25.58;17.73;;;7.80;99.90;;;;;;4786845;29;20508;-86
2022/09/23 03:14:16;;;;;;;22.73;18.08;;;7.80;99.90;;;;;;4786167;29;20050;-86
2022/09/23 03:16:51;;;;;;;21.55;17.20;;;7.80;99.90;;;;;;4786690;29;20107;-85
2022/09/23 03:19:20;;;;;;;21.73;17.58;;;7.70;99.90;;;;;;4786085;29;20127;-86
2022/09/23 03:22:14;;;;;;;18.23;16.35;;;7.60;99.90;;;;;;4785890;29;20077;-87
2022/09/23 03:24:43;;;;;;;19.67;17.60;;;7.60;99.90;;;;;;4786783;29;20054;-86
2022/09/23 03:27:15;;;;;;;18.88;16.35;;;7.50;99.90;;;;;;4785982;29;20381;-85
2022/09/23 03:29:46;;;;;;;19.75;17.65;;;7.40;99.90;;;;;;4786602;29;20137;-85
2022/09/23 03:32:14;;;;;;;25.42;19.05;;;7.40;99.90;;;;;;4786321;29;20377;-86
2022/09/23 03:34:42;;;;;;;20.92;17.92;;;7.40;99.90;;;;;;4770614;29;20058;-85
2022/09/23 03:37:17;;;;;;;23.38;19.58;;;7.40;99.90;;;;;;4785766;29;20047;-86
2022/09/23 03:39:52;;;;;;;22.98;19.33;;;7.40;99.90;;;;;;4767512;30;20111;-85
2022/09/23 03:42:23;;;;;;;24.55;20.02;;;7.40;99.90;;;;;;4768785;30;20051;-85
2022/09/23 03:44:53;;;;;;;25.33;21.08;;;7.40;99.90;;;;;;4767652;30;20065;-86
2022/09/23 03:47:20;;;;;;;23.23;20.83;;;7.30;99.90;;;;;;4782691;30;20083;-86
2022/09/23 03:49:48;;;;;;;27.33;21.67;;;7.40;99.90;;;;;;4765878;30;20599;-85
2022/09/23 03:52:16;;;;;;;25.40;21.02;;;7.30;99.90;;;;;;4783191;30;20051;-85
2022/09/23 03:54:42;;;;;;;24.90;19.63;;;7.30;99.90;;;;;;4767186;30;20041;-86
2022/09/23 03:57:09;;;;;;;26.05;21.80;;;7.30;99.90;;;;;;4768461;30;20489;-85
2022/09/23 03:59:35;;;;;;;23.73;20.63;;;7.30;99.90;;;;;;4768028;30;20047;-86
2022/09/23 04:02:02;;;;;;;23.00;19.95;;;7.30;99.90;;;;;;4752690;30;20057;-86
2022/09/23 04:04:28;;;;;;;27.42;21.58;;;7.30;99.90;;;;;;4768175;30;20055;-86
2022/09/23 04:06:55;;;;;;;25.58;21.10;;;7.30;99.90;;;;;;4781964;30;20405;-86
2022/09/23 04:09:22;;;;;;;25.30;20.27;;;7.20;99.90;;;;;;4767467;30;20420;-86
2022/09/23 04:11:49;;;;;;;26.42;20.98;;;7.20;99.90;;;;;;4767217;30;20047;-86
2022/09/23 04:14:15;;;;;;;22.35;19.50;;;7.20;99.90;;;;;;4783148;30;20408;-86
2022/09/23 04:16:41;;;;;;;29.15;21.70;;;7.20;99.90;;;;;;4766805;30;20530;-86
2022/09/23 04:19:10;;;;;;;24.38;21.83;;;7.20;99.90;;;;;;4771896;29;20051;-86
2022/09/23 04:21:35;;;;;;;23.65;19.58;;;7.20;99.90;;;;;;4785072;29;20133;-86
2022/09/23 04:24:02;;;;;;;24.48;20.58;;;7.20;99.90;;;;;;4796078;29;20137;-85
2022/09/23 04:26:29;;;;;;;33.40;19.95;;;7.10;99.90;;;;;;4800197;29;20062;-86
2022/09/23 04:28:55;;;;;;;39.08;22.75;;;7.10;99.90;;;;;;4784502;29;20484;-85
2022/09/23 04:31:22;;;;;;;25.90;19.40;;;7.10;99.90;;;;;;4800318;29;20460;-86
2022/09/23 04:33:49;;;;;;;25.45;21.42;;;7.00;99.90;;;;;;4799887;29;20055;-85
2022/09/23 04:36:15;;;;;;;25.08;19.95;;;7.10;99.90;;;;;;4784147;29;20122;-86
2022/09/23 04:38:45;;;;;;;24.75;20.35;;;7.00;99.90;;;;;;4785201;29;20050;-86
2022/09/23 04:41:12;;;;;;;22.65;20.00;;;7.00;99.90;;;;;;4785116;29;20047;-85
2022/09/23 04:43:38;;;;;;;24.30;21.73;;;6.90;99.90;;;;;;4784870;29;20176;-86
2022/09/23 04:46:06;;;;;;;25.27;21.85;;;6.90;99.90;;;;;;4799793;29;20100;-86
2022/09/23 04:48:32;;;;;;;23.67;21.08;;;6.90;99.90;;;;;;4785477;29;20055;-86
2022/09/23 04:51:10;;;;;;;25.80;21.85;;;6.90;99.90;;;;;;4783424;29;20047;-86
2022/09/23 04:53:38;;;;;;;25.63;21.40;;;6.90;99.90;;;;;;4785459;29;20055;-85
2022/09/23 04:56:07;;;;;;;23.48;20.48;;;6.90;99.90;;;;;;4785359;29;20388;-85
2022/09/23 04:58:33;;;;;;;33.35;22.80;;;6.90;99.90;;;;;;4784566;29;20058;-86
2022/09/23 05:01:07;;;;;;;24.67;22.05;;;6.90;99.90;;;;;;4814443;29;20089;-86
2022/09/23 05:03:34;;;;;;;25.33;20.63;;;7.00;99.90;;;;;;4784900;29;20047;-86
2022/09/23 05:06:00;;;;;;;23.98;21.40;;;7.00;99.90;;;;;;4813613;29;20690;-86
2022/09/23 05:08:27;;;;;;;25.42;21.23;;;7.00;99.90;;;;;;4799741;29;20111;-86
2022/09/23 05:10:57;;;;;;;31.45;24.27;;;7.00;99.90;;;;;;4784581;29;20054;-85
2022/09/23 05:13:23;;;;;;;27.90;23.92;;;7.00;99.90;;;;;;4781326;30;20055;-85
2022/09/23 05:15:55;;;;;;;28.38;22.85;;;7.00;99.90;;;;;;4799004;29;20043;-85
2022/09/23 05:18:21;;;;;;;25.25;22.00;;;7.10;99.90;;;;;;4784150;29;20073;-86
2022/09/23 05:20:53;;;;;;;25.17;22.48;;;7.10;99.90;;;;;;4783176;29;20054;-86
2022/09/23 05:23:18;;;;;;;30.88;23.15;;;7.10;99.90;;;;;;4784640;29;20057;-86
2022/09/23 05:25:45;;;;;;;25.67;22.17;;;7.10;99.90;;;;;;4783510;29;20050;-85
2022/09/23 05:28:10;;;;;;;24.77;21.05;;;7.10;99.90;;;;;;4784475;29;20507;-86
2022/09/23 05:30:36;;;;;;;23.75;21.15;;;7.10;99.90;;;;;;4784202;29;20051;-86
2022/09/23 05:33:02;;;;;;;24.63;21.05;;;7.20;99.90;;;;;;4783664;29;20079;-85
2022/09/23 05:35:27;;;;;;;26.17;19.95;;;7.20;99.90;;;;;;4783850;29;20082;-85
2022/09/23 05:37:53;;;;;;;22.50;19.60;;;7.20;99.90;;;;;;4783852;29;20412;-85
2022/09/23 05:40:19;;;;;;;22.50;19.83;;;7.20;99.90;;;;;;4783501;29;20057;-85
2022/09/23 05:42:45;;;;;;;22.45;19.98;;;7.30;99.90;;;;;;4784116;29;20047;-86
2022/09/23 05:45:10;;;;;;;25.92;21.70;;;7.20;99.90;;;;;;4784515;29;20073;-86
2022/09/23 05:47:37;;;;;;;23.25;19.58;;;7.30;99.90;;;;;;4783713;29;20658;-86
2022/09/23 05:50:03;;;;;;;27.90;19.60;;;7.40;99.90;;;;;;4783185;29;20058;-85
2022/09/23 05:52:28;;;;;;;28.80;21.35;;;7.40;99.90;;;;;;4784529;29;20050;-86
2022/09/23 05:54:54;;;;;;;25.13;20.55;;;7.50;99.90;;;;;;4783098;29;20050;-86
2022/09/23 05:57:20;;;;;;;24.15;21.38;;;7.50;99.90;;;;;;4784523;29;20487;-85
2022/09/23 05:59:46;;;;;;;28.77;21.63;;;7.70;99.90;;;;;;4783810;29;20054;-85
2022/09/23 06:02:13;;;;;;;26.70;18.30;;;7.70;99.90;;;;;;4783270;29;20057;-84
2022/09/23 06:04:39;;;;;;;26.63;19.48;;;7.80;99.90;;;;;;4783589;29;20512;-84
2022/09/23 06:07:04;;;;;;;24.25;19.50;;;7.80;99.90;;;;;;4783320;29;20051;-85
2022/09/23 06:09:30;;;;;;;21.83;19.50;;;7.90;99.90;;;;;;4783355;29;20051;-84
2022/09/23 06:11:56;;;;;;;23.17;19.25;;;8.10;99.90;;;;;;4784749;29;20078;-85
2022/09/23 06:14:21;;;;;;;23.30;19.48;;;8.10;99.90;;;;;;4787248;29;20511;-86
2022/09/23 06:16:47;;;;;;;24.75;19.30;;;8.20;99.90;;;;;;4787581;29;20047;-86
2022/09/23 06:19:13;;;;;;;19.90;17.50;;;8.30;99.90;;;;;;4787387;29;20484;-85
2022/09/23 06:21:39;;;;;;;22.17;18.33;;;8.30;99.90;;;;;;4786428;29;20090;-85
2022/09/23 06:24:06;;;;;;;20.95;17.90;;;8.40;99.90;;;;;;4790587;29;20124;-85
2022/09/23 06:26:33;;;;;;;21.90;18.00;;;8.40;99.90;;;;;;4784564;29;20085;-87
2022/09/23 06:29:01;;;;;;;28.85;17.38;;;8.50;99.90;;;;;;4786820;29;20211;-86
2022/09/23 06:31:27;;;;;;;21.70;18.05;;;8.60;99.90;;;;;;4771766;29;20061;-85
2022/09/23 06:33:53;;;;;;;24.67;17.75;;;8.60;99.90;;;;;;4787902;29;20547;-87
2022/09/23 06:36:19;;;;;;;23.65;17.30;;;8.70;99.90;;;;;;4768237;29;20110;-86
2022/09/23 06:38:48;;;;;;;24.48;18.08;;;8.70;99.90;;;;;;4781840;29;20112;-85
2022/09/23 06:41:14;;;;;;;20.98;17.90;;;8.80;99.90;;;;;;4755958;30;20047;-85
2022/09/23 06:43:40;;;;;;;19.38;16.77;;;8.90;99.90;;;;;;4774474;30;20108;-86
2022/09/23 06:46:07;;;;;;;22.98;16.83;;;8.90;99.90;;;;;;4769001;30;20134;-86
2022/09/23 06:48:34;;;;;;;19.85;16.48;;;9.00;99.90;;;;;;4799116;29;20083;-86
2022/09/23 06:51:03;;;;;;;21.17;16.55;;;9.10;99.90;;;;;;4797811;29;20054;-86
2022/09/23 06:53:31;;;;;;;20.90;16.45;;;9.20;99.90;;;;;;4784038;30;20477;-86
2022/09/23 06:56:03;;;;;;;26.92;16.77;;;9.30;99.90;;;;;;4786892;29;20051;-85
2022/09/23 06:58:30;;;;;;;19.73;15.25;;;9.40;99.90;;;;;;4771214;29;20047;-86
2022/09/23 07:01:04;;;;;;;16.63;14.63;;;9.50;99.90;;;;;;4771972;29;20120;-86
2022/09/23 07:03:30;;;;;;;18.15;14.40;;;9.60;99.90;;;;;;4772157;29;20051;-85
2022/09/23 07:05:57;;;;;;;16.52;14.75;;;9.70;99.90;;;;;;4771305;29;20512;-85
2022/09/23 07:08:23;;;;;;;29.40;15.85;;;9.80;99.90;;;;;;4786833;29;20086;-86
2022/09/23 07:10:53;;;;;;;16.27;14.55;;;9.90;99.90;;;;;;4786069;29;20054;-84
2022/09/23 07:13:20;;;;;;;19.05;14.70;;;10.00;99.90;;;;;;4786867;29;20054;-85
2022/09/23 07:15:51;;;;;;;17.25;14.85;;;10.10;99.90;;;;;;4787107;29;20047;-85
2022/09/23 07:18:18;;;;;;;17.67;13.68;;;10.20;99.90;;;;;;4786519;29;20141;-86
2022/09/23 07:20:45;;;;;;;20.83;14.27;;;10.20;99.90;;;;;;4786581;29;20127;-86
2022/09/23 07:23:11;;;;;;;18.77;13.63;;;10.30;99.90;;;;;;4786471;29;20047;-86
2022/09/23 07:25:37;;;;;;;22.70;14.10;;;10.30;99.90;;;;;;4786627;29;20054;-86
2022/09/23 07:28:04;;;;;;;20.05;14.43;;;10.40;99.90;;;;;;4788901;29;20107;-87
2022/09/23 07:30:30;;;;;;;17.58;14.60;;;10.40;99.90;;;;;;4769218;29;20157;-86
2022/09/23 07:32:55;;;;;;;23.45;13.70;;;10.40;99.90;;;;;;4771586;29;20046;-87
2022/09/23 07:35:21;;;;;;;17.70;14.50;;;10.40;99.90;;;;;;4776786;29;20380;-86
2022/09/23 07:37:49;;;;;;;16.38;13.45;;;10.50;99.90;;;;;;4763193;29;20051;-86
2022/09/23 07:40:15;;;;;;;22.30;14.02;;;10.50;99.90;;;;;;4775318;29;20055;-87
2022/09/23 07:42:40;;;;;;;18.38;13.52;;;10.50;99.90;;;;;;4762191;29;20065;-87
2022/09/23 07:45:07;;;;;;;17.00;13.25;;;10.60;99.90;;;;;;4793134;29;20490;-87
2022/09/23 07:47:34;;;;;;;15.82;14.10;;;10.60;99.90;;;;;;4776070;29;20044;-86
2022/09/23 07:49:59;;;;;;;16.85;13.43;;;10.70;99.90;;;;;;4790990;29;20058;-87
2022/09/23 07:52:25;;;;;;;19.40;13.77;;;10.80;99.90;;;;;;4777300;29;20077;-87
2022/09/23 07:54:51;;;;;;;19.25;14.13;;;10.90;99.90;;;;;;4776705;29;20039;-86
2022/09/23 07:57:17;;;;;;;16.80;14.07;;;10.90;99.90;;;;;;4791673;29;20058;-87
2022/09/23 07:59:43;;;;;;;16.98;13.13;;;11.00;99.90;;;;;;4759763;29;20047;-86
2022/09/23 08:02:14;;;;;;;23.15;14.15;;;11.10;99.90;;;;;;4762236;30;20496;-86
2022/09/23 08:04:39;;;;;;;18.50;13.55;;;11.20;99.90;;;;;;4768118;29;20142;-85
2022/09/23 08:07:05;;;;;;;17.40;13.75;;;11.30;99.90;;;;;;4766461;30;20611;-86
2022/09/23 08:09:37;;;;;;;17.70;13.98;;;11.40;99.90;;;;;;4767831;30;20050;-86
2022/09/23 08:12:03;;;;;;;17.52;13.30;;;11.40;99.90;;;;;;4767720;30;20449;-86
2022/09/23 08:14:28;;;;;;;21.90;13.50;;;11.50;99.90;;;;;;4766847;30;20058;-86
2022/09/23 08:16:54;;;;;;;17.80;13.45;;;11.60;99.90;;;;;;4767657;30;20106;-86
2022/09/23 08:19:20;;;;;;;18.67;13.02;;;11.70;99.90;;;;;;4767881;30;20168;-87
2022/09/23 08:21:46;;;;;;;18.17;13.50;;;11.80;99.90;;;;;;4765829;30;20051;-86
2022/09/23 08:24:15;;;;;;;19.55;12.50;;;11.80;99.90;;;;;;4767884;30;20058;-86
2022/09/23 08:26:41;;;;;;;15.55;11.50;;;11.90;99.90;;;;;;4767239;30;20120;-86
2022/09/23 08:29:09;;;;;;;17.38;12.93;;;12.00;99.90;;;;;;4767228;30;20051;-86
2022/09/23 08:31:34;;;;;;;18.60;12.23;;;12.10;99.90;;;;;;4767397;30;20047;-86
2022/09/23 08:34:00;;;;;;;17.48;11.55;;;12.10;99.90;;;;;;4767282;29;20059;-86
2022/09/23 08:36:26;;;;;;;15.70;11.18;;;12.30;99.90;;;;;;4765829;30;20369;-86
2022/09/23 08:38:52;;;;;;;14.20;10.93;;;12.30;99.90;;;;;;4778067;29;20134;-86
2022/09/23 08:41:27;;;;;;;15.32;11.52;;;12.40;99.90;;;;;;4785146;29;20093;-86
2022/09/23 08:44:00;;;;;;;13.30;10.95;;;12.50;99.90;;;;;;4784834;29;20073;-87
2022/09/23 08:46:33;;;;;;;;;;;12.50;99.90;;;;;;4785046;29;20058;-86
2022/09/23 08:49:06;;;;;;;16.73;11.02;;;12.60;99.90;;;;;;4784564;29;20020;-85
2022/09/23 08:51:40;;;;;;;16.25;11.32;;;12.70;99.90;;;;;;4785229;29;20416;-86
2022/09/23 08:54:09;;;;;;;15.38;11.15;;;12.80;99.90;;;;;;4785362;29;20107;-86
2022/09/23 08:56:37;;;;;;;18.08;11.98;;;12.90;99.90;;;;;;4784842;29;20066;-85
2022/09/23 08:59:14;;;;;;;12.40;10.55;;;13.00;99.90;;;;;;4788874;29;20135;-86
2022/09/23 09:01:43;;;;;;;18.27;10.88;;;13.20;99.90;;;;;;4785094;29;20055;-86
2022/09/23 09:04:44;;;;;;;17.98;10.63;;;13.30;99.90;;;;;;4801188;29;20084;-97
2022/09/23 09:07:15;;;;;;;14.75;10.00;;;13.40;99.90;;;;;;4755671;29;20069;-86
2022/09/23 09:09:47;;;;;;;12.55;9.73;;;13.50;99.90;;;;;;4784869;29;20093;-86
2022/09/23 09:12:18;;;;;;;17.40;9.65;;;13.50;99.90;;;;;;4784812;29;20043;-86
2022/09/23 09:14:54;;;;;;;16.13;8.82;;;13.60;99.90;;;;;;4766892;30;20051;-84
2022/09/23 09:17:38;;;;;;;15.40;9.85;;;13.60;99.90;;;;;;4781360;30;20496;-84
2022/09/23 09:20:17;;;;;;;16.27;9.57;;;13.80;99.90;;;;;;4751633;30;20087;-83
2022/09/23 09:22:56;;;;;;;10.85;8.93;;;13.70;99.90;;;;;;4766766;30;20057;-84
2022/09/23 09:25:41;;;;;;;13.55;9.05;;;13.80;99.90;;;;;;4799289;29;20062;-84
2022/09/23 09:28:14;;;;;;;15.70;9.88;;;13.80;99.90;;;;;;4799936;29;20058;-84
2022/09/23 09:30:42;;;;;;;13.20;9.45;;;13.80;99.90;;;;;;4784331;29;20043;-84
2022/09/23 09:33:14;;;;;;;13.98;9.45;;;13.90;99.90;;;;;;4799117;29;20073;-84
2022/09/23 09:35:59;;;;;;;12.40;9.02;;;14.00;99.90;;;;;;4783961;29;20039;-85
2022/09/23 09:38:26;;;;;;;16.75;8.93;;;14.00;99.90;;;;;;4769028;29;20063;-85
2022/09/23 09:40:59;;;;;;;14.45;8.93;;;14.10;99.90;;;;;;4783801;29;20054;-84
2022/09/23 09:43:24;;;;;;;14.73;9.30;;;14.20;99.90;;;;;;4784997;29;20054;-93
2022/09/23 09:46:28;;;;;;;13.60;9.00;;;14.20;99.90;;;;;;4783787;29;20062;-85
2022/09/23 09:48:59;;;;;;;14.82;8.68;;;14.30;99.90;;;;;;4784675;29;20047;-86
2022/09/23 09:51:27;;;;;;;13.23;8.60;;;14.30;99.90;;;;;;4769154;29;20130;-84
2022/09/23 09:53:54;;;;;;;10.95;8.02;;;14.40;99.90;;;;;;4784039;29;20047;-85
2022/09/23 09:56:30;;;;;;;11.63;7.50;;;14.30;99.90;;;;;;4799629;29;20051;-85
2022/09/23 09:59:10;;;;;;;12.05;7.68;;;14.40;99.90;;;;;;4783968;29;20212;-85
2022/09/23 10:01:36;;;;;;;9.70;6.88;;;14.50;99.90;;;;;;4783693;29;20154;-85
2022/09/23 10:04:18;;;;;;;13.90;7.63;;;14.50;99.90;;;;;;4784190;29;20472;-85
2022/09/23 10:07:04;;;;;;;10.02;7.47;;;14.50;99.90;;;;;;4783028;29;20134;-85
2022/09/23 10:09:35;;;;;;;13.07;8.18;;;14.60;99.90;;;;;;4784549;29;20232;-85
2022/09/23 10:12:10;;;;;;;15.70;7.78;;;14.60;99.90;;;;;;4784006;29;20043;-85
2022/09/23 10:14:37;;;;;;;10.85;7.43;;;14.60;99.90;;;;;;4784002;29;20473;-85
2022/09/23 10:17:06;;;;;;;10.65;7.18;;;14.70;99.90;;;;;;4784650;29;20050;-85
2022/09/23 10:19:36;;;;;;;11.35;7.10;;;14.70;99.90;;;;;;4784743;29;20055;-84
2022/09/23 10:22:14;;;;;;;13.65;7.82;;;14.70;99.90;;;;;;4782618;29;20051;-85
2022/09/23 10:24:47;;;;;;;12.55;7.50;;;14.80;99.90;;;;;;4769106;29;20161;-84
2022/09/23 10:27:12;;;;;;;14.07;7.93;;;14.80;99.90;;;;;;4799498;29;20043;-84
2022/09/23 10:29:48;;;;;;;15.40;7.63;;;14.80;99.90;;;;;;4798588;29;20066;-85
2022/09/23 10:32:18;;;;;;;10.48;7.57;;;14.80;99.90;;;;;;4775650;29;20235;-84
2022/09/23 10:34:47;;;;;;;11.30;7.68;;;14.90;99.90;;;;;;4777755;29;20149;-84
2022/09/23 10:37:17;;;;;;;12.73;7.97;;;14.80;99.90;;;;;;4774340;29;20127;-86
2022/09/23 10:48:53;;;;;;;11.15;7.28;;;14.90;99.90;;;;;;4782754;30;20062;-88
2022/09/23 10:51:30;;;;;;;13.43;7.68;;;15.00;99.90;;;;;;4814495;29;20082;-87
2022/09/23 10:54:11;;;;;;;14.80;7.75;;;15.10;99.90;;;;;;4769614;29;20137;-87
2022/09/23 10:56:44;;;;;;;11.77;7.70;;;15.10;99.90;;;;;;4784252;29;20086;-86
2022/09/23 10:59:26;;;;;;;10.80;7.50;;;15.20;99.90;;;;;;4817245;29;20050;-85
2022/09/23 11:02:08;;;;;;;11.85;7.78;;;15.20;99.90;;;;;;4788030;29;20365;-85
2022/09/23 11:04:54;;;;;;;12.45;7.72;;;15.30;99.90;;;;;;4772488;29;20115;-86
2022/09/23 11:07:23;;;;;;;13.07;7.68;;;15.30;99.90;;;;;;4801860;29;20481;-84
2022/09/23 11:10:16;;;;;;;13.68;7.53;;;15.40;99.90;;;;;;4801070;29;20055;-83
2022/09/23 11:12:47;;;;;;;11.43;8.00;;;15.50;99.90;;;;;;4772316;29;20046;-83
2022/09/23 11:15:39;;;;;;;12.48;7.78;;;15.50;99.90;;;;;;4787107;29;20098;-84
2022/09/23 11:18:16;;;;;;;13.35;7.43;;;15.60;99.90;;;;;;4771688;29;20042;-84
2022/09/23 11:21:25;;;;;;;11.82;7.43;;;15.70;99.90;;;;;;4771228;29;20179;-83
2022/09/23 11:24:11;;;;;;;11.38;7.65;;;15.80;99.90;;;;;;4771405;29;20200;-83
2022/09/23 11:27:06;;;;;;;12.07;7.95;;;15.90;99.90;;;;;;4772361;29;20050;-84
2022/09/23 11:29:41;;;;;;;13.57;7.82;;;16.00;99.90;;;;;;4769328;30;20082;-84
2022/09/23 11:32:18;;;;;;;12.93;8.40;;;16.00;99.90;;;;;;4767828;30;20054;-83
2022/09/23 11:35:02;;;;;;;12.23;8.02;;;16.00;99.90;;;;;;4768066;30;20162;-83
2022/09/23 11:37:34;;;;;;;15.30;8.30;;;16.00;99.90;;;;;;4768355;30;20051;-83
2022/09/23 11:40:13;;;;;;;13.70;7.80;;;15.90;99.90;;;;;;4753109;30;20086;-83
2022/09/23 11:42:51;;;;;;;13.68;8.50;;;15.90;99.90;;;;;;4768787;30;20146;-83
2022/09/23 11:45:22;;;;;;;12.57;8.50;;;15.90;99.90;;;;;;4768024;30;20357;-83
2022/09/23 11:47:54;;;;;;;17.33;8.38;;;15.90;99.90;;;;;;4768265;30;20044;-83
2022/09/23 11:50:28;;;;;;;15.48;8.48;;;15.90;99.90;;;;;;4767999;30;20142;-83
2022/09/23 11:53:06;;;;;;;12.85;8.00;;;15.90;99.90;;;;;;4767852;30;20127;-83
2022/09/23 11:55:46;;;;;;;15.40;8.43;;;15.80;99.90;;;;;;4768241;30;20054;-83
2022/09/23 11:58:17;;;;;;;13.25;9.25;;;15.80;99.90;;;;;;4768058;30;20055;-83
2022/09/23 12:00:53;;;;;;;15.65;8.50;;;15.80;99.90;;;;;;4767391;30;20051;-83
2022/09/23 12:03:24;;;;;;;19.05;9.00;;;15.70;99.90;;;;;;4768364;29;20184;-83
2022/09/23 12:05:59;;;;;;;12.05;8.23;;;15.70;99.90;;;;;;4781886;30;20543;-83
2022/09/23 12:08:32;;;;;;;16.33;9.23;;;15.70;99.90;;;;;;4768361;30;20433;-83
2022/09/23 12:11:05;;;;;;;16.67;9.27;;;15.70;99.90;;;;;;4752039;30;20051;-83
2022/09/23 12:13:46;;;;;;;16.02;8.80;;;15.70;99.90;;;;;;4782325;30;20134;-83
2022/09/23 12:16:47;;;;;;;14.02;8.18;;;15.70;99.90;;;;;;4767857;30;20462;-83
2022/09/23 12:19:45;;;;;;;16.65;8.70;;;15.70;99.90;;;;;;4767553;30;20495;-83
2022/09/23 12:22:35;;;;;;;14.93;8.73;;;15.70;99.90;;;;;;4783612;29;20396;-82
2022/09/23 12:25:14;;;;;;;13.77;8.82;;;15.80;99.90;;;;;;4785554;29;20070;-83
2022/09/23 12:27:43;;;;;;;13.57;8.45;;;15.80;99.90;;;;;;4784959;29;20488;-83
2022/09/23 12:30:15;;;;;;;15.43;8.02;;;15.90;99.90;;;;;;4785520;29;20049;-83
2022/09/23 12:32:41;;;;;;;11.75;8.50;;;15.90;99.90;;;;;;4785438;29;20054;-83
2022/09/23 12:35:21;;;;;;;16.23;7.88;;;16.00;99.90;;;;;;4783885;29;20093;-83
2022/09/23 12:37:48;;;;;;;18.35;9.05;;;16.00;99.90;;;;;;4781735;29;20090;-83
2022/09/23 12:40:29;;;;;;;12.52;8.60;;;16.10;99.90;;;;;;4759466;29;20051;-83
2022/09/23 12:42:55;;;;;;;14.60;8.70;;;16.10;99.90;;;;;;4780754;29;20417;-83
2022/09/23 12:45:33;;;;;;;18.75;8.65;;;16.10;99.90;;;;;;4792394;29;20058;-83
2022/09/23 12:48:23;;;;;;;13.30;8.35;;;16.20;99.90;;;;;;4778177;29;20047;-83
2022/09/23 12:51:11;;;;;;;15.55;8.98;;;16.10;99.90;;;;;;4775951;29;20055;-83
2022/09/23 12:53:53;;;;;;;11.93;8.32;;;16.20;99.90;;;;;;4775729;29;20053;-82
2022/09/23 12:56:20;;;;;;;17.23;8.48;;;16.20;99.90;;;;;;4777334;29;20082;-83
2022/09/23 12:58:45;;;;;;;15.45;8.52;;;16.30;99.90;;;;;;4774624;29;20055;-83
2022/09/23 13:01:17;;;;;;;11.48;8.40;;;16.40;99.90;;;;;;4790877;29;20046;-84
2022/09/23 13:06:52;;;;;;;18.77;9.60;;;16.40;99.90;;;;;;4763289;30;20052;-83
2022/09/23 13:09:23;;;;;;;14.82;8.85;;;16.50;99.90;;;;;;4767678;30;20042;-84
2022/09/23 13:11:52;;;;;;;12.00;8.90;;;16.50;99.90;;;;;;4749181;30;20497;-84